logo
Search for airport 
image banner adimage banner adimage banner ad
image banner ad

YMHB - Hobart

Located in Hobart, Australia

ICAO - YMHB, IATA - HBA

Data provided by Airmate  

General information

Coordinates: S42°50'10" E147°30'37"
Elevation is 13 feet MSL.
 
View others Airports in Tasmania

Operational data

Special qualification required
Current time UTC:
Current local time:
Weather
METAR: YMHB 270300Z 31017KT 9999 FEW048 16/04 Q1017
TAF: TAF YMHB 270204Z 2703/2800 32018G28KT 9999 SCT040 FM270400 30010KT 9999 SCT040 FM271600 35014KT 9999 SCT025 FM272200 30004KT 9999 -SHRA SCT020 BKN030
View NOTAMs / SUP AIP / TFR affecting this airport [VIEW]
Communications frequencies: [VIEW]

Runways:

RWY identifierQFULength (ft)Width (ft)SurfaceLDA (ft)
12135°8947148ASP
30315°8947148ASP

Airport contact information

Address: Hobart Australia

Other aviation service providers

Flight schools

Rotor Lift

Rotor Lift

Satellite view of YMHB